Impacts TAF Board
For situational awareness. Not to be used for flight planning purposes.
IDs:

KBTR - Baton Rouge/Ryan Fld, LA, US

Issued at 1756 UTC 06 Dec 2019
Updated at 2122 UTC 06 Dec 2019
Potential Impact None Slight Moderate High
Time2053Z 06/22Z 06/23Z 07/00Z 07/01Z 07/02Z 07/03Z 07/04Z 07/05Z 07/06Z 07/07Z 07/08Z 07/09Z 07/10Z>>
Type OBS PRVL PRVL PRVL PRVL PRVL PRVL PRVL PRVL PRVL PRVL PRVL PRVL PRVL
VIS 10 >6 >6 >6 >6 >6 >6 >6 >6 >6 >6 >6 >6 >6
CIG -- 60 60 60 60 60 25 25 25 25 25 25 25 25
Cover SCT BKN BKN BKN BKN BKN OVC OVC OVC OVC OVC OVC OVC OVC
FltCat VFR VFR VFR VFR VFR VFR MVFR MVFR MVFR MVFR MVFR MVFR MVFR MVFR
WX -- VCSH VCSH VCSH VCSH VCSH -- -- -- -- -- -- -- --
WDir 310 250 250 250 250 250 VRB VRB VRB VRB VRB VRB VRB VRB
WSpd 8 6 6 6 6 6 3 3 3 3 3 3 3 3
WGst -- -- -- -- -- -- -- -- -- -- -- -- -- --
Raw TAF
KBTR 061756Z 0618/0718 25006KT P6SM VCSH SCT025 BKN060
  FM070300 VRB03KT P6SM OVC025
  FM071400 VRB04KT 5SM BR OVC003
  FM071700 01005KT P6SM OVC010


Raw METAR
KBTR 062053Z 31008KT 10SM SCT035 26/18 A3002 RMK AO2 SLP165 T02610178 55009
KBTR 061953Z COR 27012KT 10SM SCT035 27/17 A3001 RMK AO2 SLP161 T02720172
KBTR 061853Z 28008KT 10SM SCT030 BKN037 OVC050 27/18 A3002 RMK AO2 SLP166 T02670178

METAR Board
Radar Display
Forecast Discussion
For situational awareness. Not to be used for flight planning purposes.